Latest Coastal Weather Observations for Frankston

IDV60701

Issued at 7:31 am EST Saturday 1 August 2015 (issued every 10 minutes, with the page automatically refreshed every 10 minutes)

About coastal observations | Map of coastal stations | Coastal observations for VIC | Marine services | Other Formats
Station Details ID: 086371 Name: FRANKSTON AWS Lat: -38.15 Lon: 145.12 Height: 6.0 m
Data from the previous 72 hours. | See also: Recent months at Frankston
Date/Time
EST
Temp

°C
Wind Pressure Rain
since 9am
mm
Weather Cloud Vis
km
Sea
Height
m
Swell
Dir
 
Speed
knots
Gust
knots
hPa Trend Height
m
Period
s
Dir
01/07:30am 10.4 N 14 18 - - - - - - - - - -
01/07:00am 10.8 N 17 21 - - - - - - - - - -
01/06:30am 11.3 N 19 24 - - - - - - - - - -
01/06:00am 11.4 N 20 26 - - - - - - - - - -
01/05:30am 11.9 N 23 30 - - - - - - - - - -
01/05:00am 11.9 N 21 27 - - - - - - - - - -
01/04:30am 12.3 N 22 30 - - - - - - - - - -
01/04:00am 12.2 N 20 26 - - - - - - - - - -
01/03:30am 12.2 N 19 26 - - - - - - - - - -
01/03:00am 12.0 N 17 25 - - - - - - - - - -
01/02:30am 11.8 N 17 21 - - - - - - - - - -
01/02:00am 11.6 N 19 25 - - - - - - - - - -
01/01:30am 11.6 N 16 21 - - - - - - - - - -
01/01:00am 11.1 N 15 21 - - - - - - - - - -
01/12:30am 11.2 N 20 25 - - - - - - - - - -
01/12:00am 10.8 N 19 24 - - - - - - - - - -
 
Date/Time
EST
Temp

°C
Wind Pressure Rain
since 9am
mm
Weather Cloud Vis
km
Sea
Height
m
Swell
Dir
 
Speed
knots
Gust
knots
hPa Trend Height
m
Period
s
Dir
31/11:30pm 10.6 N 20 27 - - - - - - - - - -
31/11:00pm 10.6 N 22 28 - - - - - - - - - -
31/10:30pm 10.6 N 18 25 - - - - - - - - - -
31/10:00pm 10.7 N 20 27 - - - - - - - - - -
31/09:30pm 10.7 NNW 18 23 - - - - - - - - - -
31/09:00pm 10.6 NNW 14 19 - - - - - - - - - -
31/08:30pm 10.7 NNW 13 18 - - - - - - - - - -
31/08:00pm 10.9 N 13 18 - - - - - - - - - -
31/07:30pm 11.0 N 15 19 - - - - - - - - - -
31/07:00pm 11.2 N 14 19 - - - - - - - - - -
31/06:30pm 11.4 N 12 18 - - - - - - - - - -
31/06:00pm 11.4 N 12 15 - - - - - - - - - -
31/05:30pm 11.8 N 12 15 - - - - - - - - - -
31/05:00pm 11.7 N 9 13 - - - - - - - - - -
31/04:30pm 11.3 CALM 0 0 - - - - - - - - - -
31/04:00pm 11.0 CALM 0 0 - - - - - - - - - -
31/03:30pm 9.8 WSW 2 3 - - - - - - - - - -
31/03:00pm 9.7 WSW 4 4 - - - - - - - - - -
31/02:30pm 9.6 W 4 5 - - - - - - - - - -
31/02:00pm 9.7 WNW 4 4 - - - - - - - - - -
31/01:30pm 9.8 NW 3 4 - - - - - - - - - -
31/01:00pm 9.5 NNW 4 5 - - - - - - - - - -
31/12:30pm 9.1 NNW 6 7 - - - - - - - - - -
31/12:00pm 8.9 NNW 7 8 - - - - - - - - - -
31/11:30am 8.6 NW 9 11 - - - - - - - - - -
31/11:00am 8.4 NNW 9 11 - - - - - - - - - -
31/10:30am 8.1 NNW 6 8 - - - - - - - - - -
31/10:00am 7.9 NNE 5 7 - - - - - - - - - -
31/09:30am 7.9 NNW 7 9 - - - - - - - - - -
31/09:00am 7.9 NNW 8 10 - - - - - - - - - -
31/08:30am 8.3 NW 7 9 - - - - - - - - - -
31/08:00am 8.3 WNW 8 11 - - - - - - - - - -
31/07:30am 8.2 WNW 9 10 - - - - - - - - - -
31/07:00am 8.2 WNW 8 9 - - - - - - - - - -
31/06:30am 8.2 WNW 11 13 - - - - - - - - - -
31/06:00am 8.5 W 6 7 - - - - - - - - - -
31/05:30am 8.4 W 5 7 - - - - - - - - - -
31/05:00am 8.7 W 8 9 - - - - - - - - - -
31/04:30am 8.6 W 7 8 - - - - - - - - - -
31/04:00am 8.9 W 7 8 - - - - - - - - - -
31/03:30am 8.8 W 8 9 - - - - - - - - - -
31/03:00am 9.0 WSW 7 9 - - - - - - - - - -
31/02:30am 9.2 WSW 11 13 - - - - - - - - - -
31/02:00am 9.2 W 11 14 - - - - - - - - - -
31/01:30am 9.3 WNW 13 15 - - - - - - - - - -
31/01:00am 9.5 WNW 14 16 - - - - - - - - - -
31/12:30am 9.7 WNW 14 16 - - - - - - - - - -
31/12:00am 9.8 W 14 18 - - - - - - - - - -
 
Date/Time
EST
Temp

°C
Wind Pressure Rain
since 9am
mm
Weather Cloud Vis
km
Sea
Height
m
Swell
Dir
 
Speed
knots
Gust
knots
hPa Trend Height
m
Period
s
Dir
30/11:30pm 10.0 WNW 14 17 - - - - - - - - - -
30/11:00pm 10.0 WNW 15 19 - - - - - - - - - -
30/10:30pm 10.2 WNW 13 15 - - - - - - - - - -
30/10:00pm 10.0 NW 13 17 - - - - - - - - - -
30/09:30pm 10.6 WNW 18 22 - - - - - - - - - -
30/09:00pm 9.9 NNW 18 24 - - - - - - - - - -
30/08:30pm 10.3 NNW 22 29 - - - - - - - - - -
30/08:00pm 10.9 N 21 27 - - - - - - - - - -
30/07:30pm 11.0 N 22 32 - - - - - - - - - -
30/07:23pm 11.2 N 22 32 - - - - - - - - - -
30/07:00pm 11.2 N 22 29 - - - - - - - - - -
30/06:39pm 11.2 N 21 31 - - - - - - - - - -
30/06:30pm 11.2 NNW 22 28 - - - - - - - - - -
30/06:00pm 11.1 NNW 23 31 - - - - - - - - - -
30/05:30pm 10.9 NNW 20 31 - - - - - - - - - -
30/05:00pm 11.5 N 22 30 - - - - - - - - - -
30/04:42pm 11.7 N 21 31 - - - - - - - - - -
30/04:30pm 11.8 N 20 29 - - - - - - - - - -
30/04:00pm 11.6 N 19 25 - - - - - - - - - -
30/03:30pm 11.1 N 17 24 - - - - - - - - - -
30/03:00pm 11.2 N 19 25 - - - - - - - - - -
30/02:30pm 11.2 N 22 29 - - - - - - - - - -
30/02:00pm 10.9 N 23 31 - - - - - - - - - -
30/01:30pm 10.8 N 22 30 - - - - - - - - - -
30/01:13pm 10.8 N 25 35 - - - - - - - - - -
30/01:00pm 10.9 N 28 38 - - - - - - - - - -
30/12:52pm 10.9 N 27 38 - - - - - - - - - -
30/12:30pm 11.0 N 27 36 - - - - - - - - - -
30/12:04pm 11.4 N 24 38 - - - - - - - - - -
30/12:00pm 11.2 N 24 31 - - - - - - - - - -
30/11:30am 10.9 N 26 35 - - - - - - - - - -
30/11:00am 11.0 N 22 32 - - - - - - - - - -
30/10:41am 10.9 N 21 31 - - - - - - - - - -
30/10:30am 10.8 N 23 31 - - - - - - - - - -
30/10:20am 10.8 N 21 31 - - - - - - - - - -
30/10:00am 10.5 N 17 23 - - - - - - - - - -
30/09:30am 10.3 N 19 23 - - - - - - - - - -
30/09:00am 10.2 N 17 22 - - - - - - - - - -
30/08:30am 10.0 N 17 23 - - - - - - - - - -
30/08:00am 9.6 N 12 15 - - - - - - - - - -
30/07:30am 9.6 N 14 18 - - - - - - - - - -
30/07:00am 9.7 N 14 18 - - - - - - - - - -
30/06:30am 9.6 N 11 14 - - - - - - - - - -
30/06:00am 9.7 N 11 14 - - - - - - - - - -
30/05:30am 9.8 N 15 18 - - - - - - - - - -
30/05:00am 9.7 N 12 16 - - - - - - - - - -
30/04:30am 9.6 N 14 18 - - - - - - - - - -
30/04:00am 9.5 N 12 15 - - - - - - - - - -
30/03:30am 9.3 N 10 13 - - - - - - - - - -
30/03:00am 9.0 N 8 10 - - - - - - - - - -
30/02:30am 9.3 N 9 12 - - - - - - - - - -
30/02:00am 9.6 N 9 11 - - - - - - - - - -
30/01:30am 9.6 N 9 12 - - - - - - - - - -
30/01:00am 9.3 NNE 7 11 - - - - - - - - - -
30/12:30am 9.6 NNE 9 11 - - - - - - - - - -
30/12:00am 9.8 N 9 11 - - - - - - - - - -
 
Date/Time
EST
Temp

°C
Wind Pressure Rain
since 9am
mm
Weather Cloud Vis
km
Sea
Height
m
Swell
Dir
 
Speed
knots
Gust
knots
hPa Trend Height
m
Period
s
Dir
29/11:30pm 10.1 N 10 12 - - - - - - - - - -
29/11:00pm 10.2 N 10 13 - - - - - - - - - -
29/10:30pm 10.3 N 10 13 - - - - - - - - - -
29/10:00pm 10.4 N 11 13 - - - - - - - - - -
29/09:30pm 10.5 N 11 13 - - - - - - - - - -
29/09:00pm 10.6 N 11 13 - - - - - - - - - -
29/08:30pm 10.6 N 12 15 - - - - - - - - - -
29/08:00pm 10.7 N 16 20 - - - - - - - - - -
29/07:30pm 10.7 N 13 17 - - - - - - - - - -
29/07:00pm 10.8 N 13 16 - - - - - - - - - -
29/06:30pm 10.9 N 12 15 - - - - - - - - - -
29/06:00pm 11.0 N 11 15 - - - - - - - - - -
29/05:30pm 11.2 N 12 14 - - - - - - - - - -
29/05:00pm 11.4 N 13 16 - - - - - - - - - -
29/04:30pm 11.6 NNE 13 15 - - - - - - - - - -
29/04:00pm 11.6 N 12 15 - - - - - - - - - -
29/03:30pm 11.4 N 13 17 - - - - - - - - - -
29/03:00pm 11.6 N 11 14 - - - - - - - - - -
29/02:30pm 11.6 N 11 13 - - - - - - - - - -
29/02:00pm 11.4 NNW 7 9 - - - - - - - - - -
29/01:30pm 11.5 NNW 8 12 - - - - - - - - - -
29/01:00pm 11.3 NW 5 7 - - - - - - - - - -
29/12:30pm 11.0 NNW 6 7 - - - - - - - - - -
29/12:00pm 10.9 NNW 5 7 - - - - - - - - - -
29/11:30am 10.9 NNW 5 7 - - - - - - - - - -
29/11:00am 10.6 N 6 7 - - - - - - - - - -
29/10:30am 10.4 N 7 8 - - - - - - - - - -
29/10:00am 10.0 N 7 8 - - - - - - - - - -
29/09:30am 9.7 N 6 7 - - - - - - - - - -
29/09:00am 9.7 NNE 3 4 - - - - - - - - - -
29/08:30am 9.6 NE 2 3 - - - - - - - - - -
29/08:00am 9.1 CALM 0 2 - - - - - - - - - -

Other Formats:

Comma delimited format used in spreadsheet applications
http://www.bom.gov.au/fwo/IDV60701/IDV60701.94871.axf

JavaScript Object Notation format (JSON) in row-major order
http://www.bom.gov.au/fwo/IDV60701/IDV60701.94871.json